sensor_id;sensor_type;location;lat;lon;timestamp;pressure;altitude;pressure_sealevel;temperature;humidity
84427;BME280;74637;52.170;21.034;2024-03-02T00:00:27;100308.82;;;6.92;78.59
84427;BME280;74637;52.170;21.034;2024-03-02T00:03:13;100306.40;;;6.91;78.73
84427;BME280;74637;52.170;21.034;2024-03-02T00:05:40;100310.90;;;6.88;79.01
84427;BME280;74637;52.170;21.034;2024-03-02T00:08:07;100302.14;;;6.87;78.87
84427;BME280;74637;52.170;21.034;2024-03-02T00:10:38;100302.71;;;6.85;78.92
84427;BME280;74637;52.170;21.034;2024-03-02T00:13:08;100300.17;;;6.83;78.82
84427;BME280;74637;52.170;21.034;2024-03-02T00:18:18;100302.33;;;6.77;79.12
84427;BME280;74637;52.170;21.034;2024-03-02T00:20:45;100303.41;;;6.76;79.23
84427;BME280;74637;52.170;21.034;2024-03-02T00:23:15;100305.73;;;6.75;79.21
84427;BME280;74637;52.170;21.034;2024-03-02T00:25:44;100302.39;;;6.75;79.22
84427;BME280;74637;52.170;21.034;2024-03-02T00:28:16;100301.19;;;6.74;79.13
84427;BME280;74637;52.170;21.034;2024-03-02T00:30:49;100300.64;;;6.75;79.11
84427;BME280;74637;52.170;21.034;2024-03-02T00:33:19;100298.75;;;6.74;79.38
84427;BME280;74637;52.170;21.034;2024-03-02T00:35:47;100296.62;;;6.74;79.35
84427;BME280;74637;52.170;21.034;2024-03-02T00:38:14;100289.94;;;6.73;79.45
84427;BME280;74637;52.170;21.034;2024-03-02T00:40:44;100294.05;;;6.72;79.53
84427;BME280;74637;52.170;21.034;2024-03-02T00:45:53;100295.66;;;6.71;79.56
84427;BME280;74637;52.170;21.034;2024-03-02T00:48:19;100300.07;;;6.71;79.59
84427;BME280;74637;52.170;21.034;2024-03-02T00:50:51;100300.63;;;6.70;79.47
84427;BME280;74637;52.170;21.034;2024-03-02T00:53:23;100293.37;;;6.71;79.33
84427;BME280;74637;52.170;21.034;2024-03-02T00:55:53;100303.03;;;6.72;79.37
84427;BME280;74637;52.170;21.034;2024-03-02T00:58:19;100301.52;;;6.70;79.39
84427;BME280;74637;52.170;21.034;2024-03-02T01:00:46;100296.78;;;6.70;79.27
84427;BME280;74637;52.170;21.034;2024-03-02T01:03:12;100298.41;;;6.68;79.55
84427;BME280;74637;52.170;21.034;2024-03-02T01:05:42;100296.56;;;6.66;79.40
84427;BME280;74637;52.170;21.034;2024-03-02T01:08:10;100289.08;;;6.64;79.32
84427;BME280;74637;52.170;21.034;2024-03-02T01:10:36;100288.08;;;6.62;79.41
84427;BME280;74637;52.170;21.034;2024-03-02T01:13:03;100288.54;;;6.59;79.54
84427;BME280;74637;52.170;21.034;2024-03-02T01:15:30;100281.98;;;6.55;79.56
84427;BME280;74637;52.170;21.034;2024-03-02T01:17:56;100288.89;;;6.54;79.75
84427;BME280;74637;52.170;21.034;2024-03-02T01:20:23;100283.50;;;6.52;79.77
84427;BME280;74637;52.170;21.034;2024-03-02T01:22:49;100280.75;;;6.50;79.67
84427;BME280;74637;52.170;21.034;2024-03-02T01:25:16;100282.73;;;6.49;79.86
84427;BME280;74637;52.170;21.034;2024-03-02T01:27:42;100279.24;;;6.48;79.66
84427;BME280;74637;52.170;21.034;2024-03-02T01:30:09;100280.58;;;6.45;79.84
84427;BME280;74637;52.170;21.034;2024-03-02T01:32:37;100283.13;;;6.43;79.90
84427;BME280;74637;52.170;21.034;2024-03-02T01:35:05;100281.18;;;6.43;79.97
84427;BME280;74637;52.170;21.034;2024-03-02T01:37:33;100275.95;;;6.41;79.82
84427;BME280;74637;52.170;21.034;2024-03-02T01:39:59;100270.74;;;6.39;79.83
84427;BME280;74637;52.170;21.034;2024-03-02T01:42:26;100271.21;;;6.36;80.10
84427;BME280;74637;52.170;21.034;2024-03-02T01:44:53;100268.77;;;6.36;79.97
84427;BME280;74637;52.170;21.034;2024-03-02T01:47:19;100266.15;;;6.35;80.14
84427;BME280;74637;52.170;21.034;2024-03-02T01:49:45;100267.79;;;6.34;80.10
84427;BME280;74637;52.170;21.034;2024-03-02T01:52:12;100267.65;;;6.33;80.01
84427;BME280;74637;52.170;21.034;2024-03-02T01:54:39;100273.77;;;6.33;80.12
84427;BME280;74637;52.170;21.034;2024-03-02T01:57:05;100265.32;;;6.34;80.14
84427;BME280;74637;52.170;21.034;2024-03-02T01:59:33;100264.83;;;6.33;80.11
84427;BME280;74637;52.170;21.034;2024-03-02T02:01:59;100262.54;;;6.33;80.09
84427;BME280;74637;52.170;21.034;2024-03-02T02:04:26;100264.16;;;6.31;80.26
84427;BME280;74637;52.170;21.034;2024-03-02T02:06:54;100260.70;;;6.30;80.33
84427;BME280;74637;52.170;21.034;2024-03-02T02:09:20;100261.70;;;6.26;80.31
84427;BME280;74637;52.170;21.034;2024-03-02T02:11:47;100264.04;;;6.25;80.35
84427;BME280;74637;52.170;21.034;2024-03-02T02:14:14;100257.79;;;6.23;80.44
84427;BME280;74637;52.170;21.034;2024-03-02T02:16:40;100260.13;;;6.21;80.38
84427;BME280;74637;52.170;21.034;2024-03-02T02:19:07;100256.64;;;6.20;80.50
84427;BME280;74637;52.170;21.034;2024-03-02T02:21:34;100257.41;;;6.18;80.53
84427;BME280;74637;52.170;21.034;2024-03-02T02:24:00;100253.63;;;6.15;80.66
84427;BME280;74637;52.170;21.034;2024-03-02T02:26:29;100252.12;;;6.13;80.55
84427;BME280;74637;52.170;21.034;2024-03-02T02:28:56;100250.64;;;6.10;80.65
84427;BME280;74637;52.170;21.034;2024-03-02T02:31:22;100253.86;;;6.09;80.71
84427;BME280;74637;52.170;21.034;2024-03-02T02:33:49;100249.00;;;6.07;80.69
84427;BME280;74637;52.170;21.034;2024-03-02T02:36:15;100251.51;;;6.06;80.82
84427;BME280;74637;52.170;21.034;2024-03-02T02:38:44;100246.14;;;6.03;81.10
84427;BME280;74637;52.170;21.034;2024-03-02T02:41:13;100241.63;;;6.01;80.73
84427;BME280;74637;52.170;21.034;2024-03-02T02:43:39;100242.15;;;6.01;81.03
84427;BME280;74637;52.170;21.034;2024-03-02T02:46:08;100246.05;;;6.00;80.88
84427;BME280;74637;52.170;21.034;2024-03-02T02:48:35;100246.10;;;5.98;81.01
84427;BME280;74637;52.170;21.034;2024-03-02T02:51:01;100241.23;;;5.96;81.06
84427;BME280;74637;52.170;21.034;2024-03-02T02:53:28;100241.89;;;5.93;81.22
84427;BME280;74637;52.170;21.034;2024-03-02T02:55:54;100239.60;;;5.88;81.44
84427;BME280;74637;52.170;21.034;2024-03-02T02:58:21;100234.65;;;5.83;81.79
84427;BME280;74637;52.170;21.034;2024-03-02T03:00:47;100237.38;;;5.81;81.78
84427;BME280;74637;52.170;21.034;2024-03-02T03:03:14;100243.10;;;5.78;81.71
84427;BME280;74637;52.170;21.034;2024-03-02T03:05:40;100236.95;;;5.78;81.66
84427;BME280;74637;52.170;21.034;2024-03-02T03:08:07;100232.43;;;5.76;81.88
84427;BME280;74637;52.170;21.034;2024-03-02T03:10:34;100228.17;;;5.72;81.84
84427;BME280;74637;52.170;21.034;2024-03-02T03:13:00;100223.16;;;5.69;82.37
84427;BME280;74637;52.170;21.034;2024-03-02T03:15:27;100221.17;;;5.65;82.41
84427;BME280;74637;52.170;21.034;2024-03-02T03:17:53;100225.52;;;5.62;82.46
84427;BME280;74637;52.170;21.034;2024-03-02T03:20:20;100225.10;;;5.58;82.41
84427;BME280;74637;52.170;21.034;2024-03-02T03:22:47;100227.97;;;5.57;82.63
84427;BME280;74637;52.170;21.034;2024-03-02T03:25:14;100225.54;;;5.56;82.60
84427;BME280;74637;52.170;21.034;2024-03-02T03:27:40;100224.71;;;5.54;82.88
84427;BME280;74637;52.170;21.034;2024-03-02T03:30:08;100222.27;;;5.53;82.53
84427;BME280;74637;52.170;21.034;2024-03-02T03:32:34;100226.06;;;5.51;82.73
84427;BME280;74637;52.170;21.034;2024-03-02T03:35:01;100225.44;;;5.48;82.93
84427;BME280;74637;52.170;21.034;2024-03-02T03:37:28;100229.50;;;5.47;83.08
84427;BME280;74637;52.170;21.034;2024-03-02T03:39:59;100234.20;;;5.49;83.07
84427;BME280;74637;52.170;21.034;2024-03-02T03:42:27;100226.77;;;5.50;82.87
84427;BME280;74637;52.170;21.034;2024-03-02T03:44:54;100223.96;;;5.50;83.26
84427;BME280;74637;52.170;21.034;2024-03-02T03:47:20;100225.55;;;5.50;83.08
84427;BME280;74637;52.170;21.034;2024-03-02T03:49:47;100221.73;;;5.49;83.02
84427;BME280;74637;52.170;21.034;2024-03-02T03:52:13;100220.65;;;5.49;82.96
84427;BME280;74637;52.170;21.034;2024-03-02T03:54:40;100225.10;;;5.47;83.02
84427;BME280;74637;52.170;21.034;2024-03-02T03:57:09;100222.13;;;5.47;83.15
84427;BME280;74637;52.170;21.034;2024-03-02T03:59:35;100221.45;;;5.47;83.14
84427;BME280;74637;52.170;21.034;2024-03-02T04:02:03;100221.64;;;5.46;83.38
84427;BME280;74637;52.170;21.034;2024-03-02T04:04:30;100229.02;;;5.46;83.00
84427;BME280;74637;52.170;21.034;2024-03-02T04:06:57;100226.05;;;5.45;83.14
84427;BME280;74637;52.170;21.034;2024-03-02T04:09:23;100226.61;;;5.44;83.24
84427;BME280;74637;52.170;21.034;2024-03-02T04:11:50;100227.36;;;5.43;82.81
84427;BME280;74637;52.170;21.034;2024-03-02T04:14:17;100232.29;;;5.42;83.10
84427;BME280;74637;52.170;21.034;2024-03-02T04:16:43;100230.58;;;5.41;83.18
84427;BME280;74637;52.170;21.034;2024-03-02T04:19:09;100223.92;;;5.40;82.98
84427;BME280;74637;52.170;21.034;2024-03-02T04:21:36;100227.54;;;5.37;83.14
84427;BME280;74637;52.170;21.034;2024-03-02T04:24:03;100235.01;;;5.34;83.40
84427;BME280;74637;52.170;21.034;2024-03-02T04:26:30;100236.67;;;5.32;83.24
84427;BME280;74637;52.170;21.034;2024-03-02T04:28:56;100233.55;;;5.31;83.35
84427;BME280;74637;52.170;21.034;2024-03-02T04:31:23;100232.15;;;5.30;83.64
84427;BME280;74637;52.170;21.034;2024-03-02T04:33:49;100230.63;;;5.28;83.68
84427;BME280;74637;52.170;21.034;2024-03-02T04:36:16;100229.59;;;5.28;83.98
84427;BME280;74637;52.170;21.034;2024-03-02T04:38:42;100229.27;;;5.27;83.78
84427;BME280;74637;52.170;21.034;2024-03-02T04:41:09;100226.48;;;5.26;83.85
84427;BME280;74637;52.170;21.034;2024-03-02T04:43:35;100219.81;;;5.26;83.68
84427;BME280;74637;52.170;21.034;2024-03-02T04:46:02;100225.27;;;5.26;83.98
84427;BME280;74637;52.170;21.034;2024-03-02T04:48:29;100223.36;;;5.25;84.02
84427;BME280;74637;52.170;21.034;2024-03-02T04:50:55;100225.83;;;5.24;84.09
84427;BME280;74637;52.170;21.034;2024-03-02T04:53:22;100224.61;;;5.25;84.27
84427;BME280;74637;52.170;21.034;2024-03-02T04:55:49;100219.11;;;5.26;84.13
84427;BME280;74637;52.170;21.034;2024-03-02T04:58:35;100220.16;;;5.26;83.97
84427;BME280;74637;52.170;21.034;2024-03-02T05:01:02;100223.48;;;5.27;84.15
84427;BME280;74637;52.170;21.034;2024-03-02T05:03:28;100224.35;;;5.27;83.92
84427;BME280;74637;52.170;21.034;2024-03-02T05:05:55;100223.61;;;5.28;84.07
84427;BME280;74637;52.170;21.034;2024-03-02T05:08:22;100230.58;;;5.30;84.09
84427;BME280;74637;52.170;21.034;2024-03-02T05:10:49;100237.73;;;5.32;83.85
84427;BME280;74637;52.170;21.034;2024-03-02T05:13:15;100240.66;;;5.33;84.01
84427;BME280;74637;52.170;21.034;2024-03-02T05:15:43;100243.25;;;5.35;83.92
84427;BME280;74637;52.170;21.034;2024-03-02T05:18:10;100243.27;;;5.35;83.98
84427;BME280;74637;52.170;21.034;2024-03-02T05:20:36;100244.66;;;5.35;83.99
84427;BME280;74637;52.170;21.034;2024-03-02T05:23:03;100248.55;;;5.34;84.04
84427;BME280;74637;52.170;21.034;2024-03-02T05:25:30;100254.25;;;5.37;84.04
84427;BME280;74637;52.170;21.034;2024-03-02T05:27:56;100255.42;;;5.39;84.09
84427;BME280;74637;52.170;21.034;2024-03-02T05:30:22;100253.05;;;5.42;83.76
84427;BME280;74637;52.170;21.034;2024-03-02T05:32:49;100257.58;;;5.43;84.01
84427;BME280;74637;52.170;21.034;2024-03-02T05:35:16;100259.91;;;5.41;84.10
84427;BME280;74637;52.170;21.034;2024-03-02T05:37:42;100249.78;;;5.40;83.87
84427;BME280;74637;52.170;21.034;2024-03-02T05:40:09;100260.94;;;5.37;84.22
84427;BME280;74637;52.170;21.034;2024-03-02T05:42:37;100264.51;;;5.35;84.16
84427;BME280;74637;52.170;21.034;2024-03-02T05:45:04;100264.09;;;5.37;84.28
84427;BME280;74637;52.170;21.034;2024-03-02T05:47:31;100264.14;;;5.41;84.08
84427;BME280;74637;52.170;21.034;2024-03-02T05:49:59;100268.14;;;5.42;84.10
84427;BME280;74637;52.170;21.034;2024-03-02T05:52:25;100269.15;;;5.44;84.08
84427;BME280;74637;52.170;21.034;2024-03-02T05:54:52;100273.38;;;5.43;84.11
84427;BME280;74637;52.170;21.034;2024-03-02T05:57:18;100262.55;;;5.47;84.05
84427;BME280;74637;52.170;21.034;2024-03-02T06:00:05;100274.34;;;5.47;84.34
84427;BME280;74637;52.170;21.034;2024-03-02T06:02:34;100281.11;;;5.49;83.96
84427;BME280;74637;52.170;21.034;2024-03-02T06:05:01;100279.61;;;5.52;83.84
84427;BME280;74637;52.170;21.034;2024-03-02T06:07:28;100279.23;;;5.54;83.84
84427;BME280;74637;52.170;21.034;2024-03-02T06:09:54;100279.55;;;5.54;84.07
84427;BME280;74637;52.170;21.034;2024-03-02T06:12:21;100277.31;;;5.52;83.90
84427;BME280;74637;52.170;21.034;2024-03-02T06:14:47;100280.60;;;5.55;84.09
84427;BME280;74637;52.170;21.034;2024-03-02T06:17:14;100282.59;;;5.58;84.05
84427;BME280;74637;52.170;21.034;2024-03-02T06:19:40;100290.73;;;5.62;84.08
84427;BME280;74637;52.170;21.034;2024-03-02T06:22:07;100287.61;;;5.66;83.70
84427;BME280;74637;52.170;21.034;2024-03-02T06:24:36;100286.58;;;5.71;84.04
84427;BME280;74637;52.170;21.034;2024-03-02T06:27:06;100284.95;;;5.72;83.78
84427;BME280;74637;52.170;21.034;2024-03-02T06:29:33;100289.55;;;5.77;83.81
84427;BME280;74637;52.170;21.034;2024-03-02T06:32:02;100297.11;;;5.82;83.41
84427;BME280;74637;52.170;21.034;2024-03-02T06:34:29;100299.47;;;5.85;83.60
84427;BME280;74637;52.170;21.034;2024-03-02T06:36:55;100298.48;;;5.89;83.60
84427;BME280;74637;52.170;21.034;2024-03-02T06:39:22;100295.73;;;5.92;83.53
84427;BME280;74637;52.170;21.034;2024-03-02T06:41:48;100303.73;;;5.95;83.44
84427;BME280;74637;52.170;21.034;2024-03-02T06:44:15;100305.54;;;5.99;83.56
84427;BME280;74637;52.170;21.034;2024-03-02T06:46:41;100298.52;;;6.04;83.51
84427;BME280;74637;52.170;21.034;2024-03-02T06:49:08;100294.41;;;6.07;83.29
84427;BME280;74637;52.170;21.034;2024-03-02T06:51:36;100302.87;;;6.06;83.41
84427;BME280;74637;52.170;21.034;2024-03-02T06:54:03;100299.91;;;6.10;83.07
84427;BME280;74637;52.170;21.034;2024-03-02T06:56:29;100301.85;;;6.15;83.10
84427;BME280;74637;52.170;21.034;2024-03-02T06:58:57;100301.92;;;6.18;82.79
84427;BME280;74637;52.170;21.034;2024-03-02T07:01:23;100303.90;;;6.17;82.55
84427;BME280;74637;52.170;21.034;2024-03-02T07:03:52;100308.64;;;6.17;82.57
84427;BME280;74637;52.170;21.034;2024-03-02T07:06:19;100306.30;;;6.19;82.77
84427;BME280;74637;52.170;21.034;2024-03-02T07:08:45;100304.86;;;6.20;82.64
84427;BME280;74637;52.170;21.034;2024-03-02T07:11:12;100306.44;;;6.20;82.52
84427;BME280;74637;52.170;21.034;2024-03-02T07:13:38;100302.30;;;6.23;82.54
84427;BME280;74637;52.170;21.034;2024-03-02T07:16:05;100301.33;;;6.25;82.33
84427;BME280;74637;52.170;21.034;2024-03-02T07:18:50;100301.14;;;6.26;82.42
84427;BME280;74637;52.170;21.034;2024-03-02T07:21:18;100306.81;;;6.25;82.57
84427;BME280;74637;52.170;21.034;2024-03-02T07:23:45;100310.14;;;6.25;82.43
84427;BME280;74637;52.170;21.034;2024-03-02T07:26:11;100314.89;;;6.30;82.53
84427;BME280;74637;52.170;21.034;2024-03-02T07:28:38;100313.43;;;6.37;82.40
84427;BME280;74637;52.170;21.034;2024-03-02T07:31:04;100314.39;;;6.39;82.07
84427;BME280;74637;52.170;21.034;2024-03-02T07:33:31;100310.92;;;6.43;82.06
84427;BME280;74637;52.170;21.034;2024-03-02T07:35:59;100310.40;;;6.43;82.07
84427;BME280;74637;52.170;21.034;2024-03-02T07:38:27;100309.84;;;6.44;81.96
84427;BME280;74637;52.170;21.034;2024-03-02T07:40:54;100305.56;;;6.45;81.97
84427;BME280;74637;52.170;21.034;2024-03-02T07:43:21;100303.22;;;6.47;81.92
84427;BME280;74637;52.170;21.034;2024-03-02T07:45:48;100304.90;;;6.49;82.01
84427;BME280;74637;52.170;21.034;2024-03-02T07:48:15;100302.52;;;6.52;81.66
84427;BME280;74637;52.170;21.034;2024-03-02T07:50:42;100306.13;;;6.54;81.65
84427;BME280;74637;52.170;21.034;2024-03-02T07:53:09;100308.23;;;6.60;81.66
84427;BME280;74637;52.170;21.034;2024-03-02T07:55:35;100317.02;;;6.65;81.48
84427;BME280;74637;52.170;21.034;2024-03-02T07:58:02;100319.31;;;6.70;81.37
84427;BME280;74637;52.170;21.034;2024-03-02T08:00:29;100325.19;;;6.78;80.95
84427;BME280;74637;52.170;21.034;2024-03-02T08:02:56;100334.02;;;6.82;80.85
84427;BME280;74637;52.170;21.034;2024-03-02T08:05:23;100336.47;;;6.87;80.76
84427;BME280;74637;52.170;21.034;2024-03-02T08:07:49;100340.21;;;6.91;80.48
84427;BME280;74637;52.170;21.034;2024-03-02T08:10:19;100343.80;;;6.94;80.51
84427;BME280;74637;52.170;21.034;2024-03-02T08:12:46;100334.72;;;6.97;80.27
84427;BME280;74637;52.170;21.034;2024-03-02T08:15:12;100335.90;;;6.98;80.01
84427;BME280;74637;52.170;21.034;2024-03-02T08:17:39;100330.76;;;6.99;80.13
84427;BME280;74637;52.170;21.034;2024-03-02T08:20:12;100328.00;;;7.02;80.41
84427;BME280;74637;52.170;21.034;2024-03-02T08:22:38;100332.05;;;7.07;80.22
84427;BME280;74637;52.170;21.034;2024-03-02T08:25:06;100331.52;;;7.07;80.11
84427;BME280;74637;52.170;21.034;2024-03-02T08:27:34;100326.49;;;7.10;80.10
84427;BME280;74637;52.170;21.034;2024-03-02T08:30:00;100318.70;;;7.11;79.81
84427;BME280;74637;52.170;21.034;2024-03-02T08:32:27;100325.32;;;7.08;80.01
84427;BME280;74637;52.170;21.034;2024-03-02T08:34:54;100338.64;;;7.10;80.04
84427;BME280;74637;52.170;21.034;2024-03-02T08:37:21;100337.80;;;7.13;79.94
84427;BME280;74637;52.170;21.034;2024-03-02T08:39:47;100336.38;;;7.18;79.65
84427;BME280;74637;52.170;21.034;2024-03-02T08:42:14;100338.81;;;7.19;79.58
84427;BME280;74637;52.170;21.034;2024-03-02T08:44:40;100342.16;;;7.19;79.69
84427;BME280;74637;52.170;21.034;2024-03-02T08:47:07;100346.23;;;7.19;79.27
84427;BME280;74637;52.170;21.034;2024-03-02T08:49:34;100344.84;;;7.18;79.35
84427;BME280;74637;52.170;21.034;2024-03-02T08:52:01;100340.91;;;7.20;79.44
84427;BME280;74637;52.170;21.034;2024-03-02T08:54:27;100340.52;;;7.21;79.33
84427;BME280;74637;52.170;21.034;2024-03-02T08:56:54;100341.95;;;7.21;79.48
84427;BME280;74637;52.170;21.034;2024-03-02T08:59:20;100343.55;;;7.25;79.43
84427;BME280;74637;52.170;21.034;2024-03-02T09:01:47;100344.08;;;7.29;79.42
84427;BME280;74637;52.170;21.034;2024-03-02T09:04:14;100345.17;;;7.33;79.06
84427;BME280;74637;52.170;21.034;2024-03-02T09:06:40;100344.56;;;7.35;79.11
84427;BME280;74637;52.170;21.034;2024-03-02T09:09:07;100345.52;;;7.38;78.96
84427;BME280;74637;52.170;21.034;2024-03-02T09:11:34;100343.03;;;7.38;79.01
84427;BME280;74637;52.170;21.034;2024-03-02T09:14:01;100346.39;;;7.38;79.09
84427;BME280;74637;52.170;21.034;2024-03-02T09:16:28;100346.45;;;7.41;79.13
84427;BME280;74637;52.170;21.034;2024-03-02T09:18:57;100350.60;;;7.48;79.32
84427;BME280;74637;52.170;21.034;2024-03-02T09:21:23;100349.95;;;7.56;78.80
84427;BME280;74637;52.170;21.034;2024-03-02T09:23:51;100349.75;;;7.60;78.53
84427;BME280;74637;52.170;21.034;2024-03-02T09:26:18;100350.73;;;7.63;78.46
84427;BME280;74637;52.170;21.034;2024-03-02T09:28:46;100349.61;;;7.64;78.41
84427;BME280;74637;52.170;21.034;2024-03-02T09:31:13;100350.23;;;7.62;78.59
84427;BME280;74637;52.170;21.034;2024-03-02T09:33:40;100349.40;;;7.65;78.58
84427;BME280;74637;52.170;21.034;2024-03-02T09:36:19;100354.50;;;7.70;78.32
84427;BME280;74637;52.170;21.034;2024-03-02T09:38:46;100352.52;;;7.71;78.32
84427;BME280;74637;52.170;21.034;2024-03-02T09:41:14;100348.48;;;7.75;78.07
84427;BME280;74637;52.170;21.034;2024-03-02T09:43:41;100346.97;;;7.77;77.76
84427;BME280;74637;52.170;21.034;2024-03-02T09:46:11;100343.53;;;7.79;77.84
84427;BME280;74637;52.170;21.034;2024-03-02T09:48:37;100346.63;;;7.82;77.87
84427;BME280;74637;52.170;21.034;2024-03-02T09:51:05;100341.58;;;7.85;77.61
84427;BME280;74637;52.170;21.034;2024-03-02T09:53:33;100341.86;;;7.91;77.37
84427;BME280;74637;52.170;21.034;2024-03-02T09:56:00;100344.13;;;7.95;76.93
84427;BME280;74637;52.170;21.034;2024-03-02T09:58:27;100345.33;;;7.96;76.88
84427;BME280;74637;52.170;21.034;2024-03-02T10:00:53;100345.90;;;8.00;77.09
84427;BME280;74637;52.170;21.034;2024-03-02T10:03:20;100343.71;;;8.06;76.92
84427;BME280;74637;52.170;21.034;2024-03-02T10:05:48;100341.33;;;8.12;76.88
84427;BME280;74637;52.170;21.034;2024-03-02T10:08:14;100339.48;;;8.23;76.83
84427;BME280;74637;52.170;21.034;2024-03-02T10:10:41;100335.39;;;8.32;76.40
84427;BME280;74637;52.170;21.034;2024-03-02T10:13:12;100333.19;;;8.38;76.37
84427;BME280;74637;52.170;21.034;2024-03-02T10:15:41;100327.61;;;8.41;75.92
84427;BME280;74637;52.170;21.034;2024-03-02T10:18:11;100325.88;;;8.40;75.70
84427;BME280;74637;52.170;21.034;2024-03-02T10:20:39;100326.64;;;8.42;76.14
84427;BME280;74637;52.170;21.034;2024-03-02T10:23:13;100325.11;;;8.50;76.10
84427;BME280;74637;52.170;21.034;2024-03-02T10:25:42;100320.38;;;8.61;76.11
84427;BME280;74637;52.170;21.034;2024-03-02T10:28:09;100321.45;;;8.73;75.62
84427;BME280;74637;52.170;21.034;2024-03-02T10:30:36;100323.45;;;8.80;75.37
84427;BME280;74637;52.170;21.034;2024-03-02T10:33:05;100321.71;;;8.87;75.33
84427;BME280;74637;52.170;21.034;2024-03-02T10:35:32;100317.05;;;8.93;74.84
84427;BME280;74637;52.170;21.034;2024-03-02T10:38:04;100318.91;;;8.98;74.72
84427;BME280;74637;52.170;21.034;2024-03-02T10:40:32;100316.20;;;9.12;74.84
84427;BME280;74637;52.170;21.034;2024-03-02T10:43:01;100315.59;;;9.28;74.68
84427;BME280;74637;52.170;21.034;2024-03-02T10:45:29;100314.73;;;9.43;73.98
84427;BME280;74637;52.170;21.034;2024-03-02T10:47:56;100313.13;;;9.47;72.84
84427;BME280;74637;52.170;21.034;2024-03-02T10:50:24;100313.21;;;9.41;72.78
84427;BME280;74637;52.170;21.034;2024-03-02T10:52:51;100315.02;;;9.37;72.97
84427;BME280;74637;52.170;21.034;2024-03-02T10:55:17;100313.23;;;9.33;73.32
84427;BME280;74637;52.170;21.034;2024-03-02T10:57:51;100309.52;;;9.37;73.69
84427;BME280;74637;52.170;21.034;2024-03-02T11:00:18;100305.84;;;9.48;73.14
84427;BME280;74637;52.170;21.034;2024-03-02T11:03:06;100302.29;;;9.48;72.25
84427;BME280;74637;52.170;21.034;2024-03-02T11:05:40;100305.30;;;9.41;72.42
84427;BME280;74637;52.170;21.034;2024-03-02T11:08:13;100308.48;;;9.33;72.78
84427;BME280;74637;52.170;21.034;2024-03-02T11:10:41;100301.51;;;9.35;73.27
84427;BME280;74637;52.170;21.034;2024-03-02T11:13:12;100301.17;;;9.45;73.04
84427;BME280;74637;52.170;21.034;2024-03-02T11:15:40;100304.17;;;9.53;72.80
84427;BME280;74637;52.170;21.034;2024-03-02T11:18:10;100301.23;;;9.55;72.54
84427;BME280;74637;52.170;21.034;2024-03-02T11:20:39;100298.28;;;9.54;72.29
84427;BME280;74637;52.170;21.034;2024-03-02T11:23:07;100292.74;;;9.55;72.44
84427;BME280;74637;52.170;21.034;2024-03-02T11:25:35;100295.42;;;9.59;72.15
84427;BME280;74637;52.170;21.034;2024-03-02T11:28:06;100293.48;;;9.66;72.33
84427;BME280;74637;52.170;21.034;2024-03-02T11:33:06;100290.52;;;9.79;71.70
84427;BME280;74637;52.170;21.034;2024-03-02T11:35:34;100294.08;;;9.79;71.97
84427;BME280;74637;52.170;21.034;2024-03-02T11:38:01;100292.76;;;9.84;71.78
84427;BME280;74637;52.170;21.034;2024-03-02T11:40:30;100284.55;;;9.93;72.05
84427;BME280;74637;52.170;21.034;2024-03-02T11:42:59;100270.27;;;10.02;71.13
84427;BME280;74637;52.170;21.034;2024-03-02T11:45:26;100270.48;;;10.01;70.56
84427;BME280;74637;52.170;21.034;2024-03-02T11:47:57;100269.77;;;9.98;70.42
84427;BME280;74637;52.170;21.034;2024-03-02T11:50:31;100265.20;;;10.05;71.11
84427;BME280;74637;52.170;21.034;2024-03-02T11:52:59;100272.77;;;10.30;71.30
84427;BME280;74637;52.170;21.034;2024-03-02T11:55:26;100266.14;;;10.55;70.20
84427;BME280;74637;52.170;21.034;2024-03-02T11:57:53;100263.95;;;10.77;70.26
84427;BME280;74637;52.170;21.034;2024-03-02T12:00:20;100265.77;;;11.05;69.83
84427;BME280;74637;52.170;21.034;2024-03-02T12:03:07;100260.98;;;11.28;67.62
84427;BME280;74637;52.170;21.034;2024-03-02T12:05:35;100266.64;;;11.35;66.83
84427;BME280;74637;52.170;21.034;2024-03-02T12:08:04;100267.69;;;11.38;67.72
84427;BME280;74637;52.170;21.034;2024-03-02T12:10:33;100267.11;;;11.48;68.13
84427;BME280;74637;52.170;21.034;2024-03-02T12:13:05;100266.91;;;11.65;67.98
84427;BME280;74637;52.170;21.034;2024-03-02T12:15:38;100267.49;;;11.85;67.78
84427;BME280;74637;52.170;21.034;2024-03-02T12:18:05;100267.02;;;12.03;66.87
84427;BME280;74637;52.170;21.034;2024-03-02T12:20:33;100267.98;;;12.11;66.42
84427;BME280;74637;52.170;21.034;2024-03-02T12:23:01;100270.01;;;12.10;65.86
84427;BME280;74637;52.170;21.034;2024-03-02T12:25:30;100270.26;;;12.02;65.16
84427;BME280;74637;52.170;21.034;2024-03-02T12:27:59;100272.30;;;11.94;65.32
84427;BME280;74637;52.170;21.034;2024-03-02T12:30:29;100275.13;;;11.82;65.32
84427;BME280;74637;52.170;21.034;2024-03-02T12:32:56;100277.44;;;11.79;65.86
84427;BME280;74637;52.170;21.034;2024-03-02T12:35:24;100281.08;;;11.87;66.38
84427;BME280;74637;52.170;21.034;2024-03-02T12:37:52;100276.38;;;11.95;65.56
84427;BME280;74637;52.170;21.034;2024-03-02T12:40:20;100273.35;;;11.82;65.07
84427;BME280;74637;52.170;21.034;2024-03-02T12:42:49;100277.45;;;11.63;65.48
84427;BME280;74637;52.170;21.034;2024-03-02T12:45:16;100278.13;;;11.45;65.63
84427;BME280;74637;52.170;21.034;2024-03-02T12:47:50;100278.36;;;11.31;66.15
84427;BME280;74637;52.170;21.034;2024-03-02T12:50:20;100277.67;;;11.31;66.33
84427;BME280;74637;52.170;21.034;2024-03-02T12:52:54;100275.77;;;11.33;66.27
84427;BME280;74637;52.170;21.034;2024-03-02T12:55:21;100274.89;;;11.20;65.98
84427;BME280;74637;52.170;21.034;2024-03-02T12:57:50;100274.73;;;11.00;66.42